RJNO(METAR)
10/16 16:00
RJNO 160700Z 09006KT 9999 FEW040 SCTXXX 16/08 Q1024 RMK A3026=
戻る
トップページへ戻る
IMOC Co,.Ltd.